Vohburg — V2OW7 — position and weather

sailwx.info

Track history (hours):
 
Tides and Currents Weather Stations Pressure Air Temp Water Temp Dewpoint Dewpoint Depression Visibility Wind Speed Wind Dir Waves Ship Positions

Vohburg

Last reported at 2015-Apr-20 00:32 UTC. Time now 2015-Apr-20 00:50 UTC.
Position N 59°35' E 023°36'.

Length 140 m; draft 6.8 m.

Type: Ship (hazmat cat A). MMSI: 305773000.

Date/timePositionNaut miles runAvg speedWind from/ knotsBaromVisibWave heightAir tempDewpointWater temp
2015-Apr-20 00:32N 59°35' E 023°36'387 8.4
2015-Apr-18 02:33N 55°20' E 014°35'1716.7
2015-Apr-18 01:33N 55°08' E 014°16'1616.3
2015-Apr-18 00:33N 54°58' E 013°53'1717.2
2015-Apr-17 23:33N 54°52' E 013°25'1717.0
2015-Apr-17 22:33N 54°46' E 012°57'1716.8
2015-Apr-17 21:33N 54°39' E 012°31'1716.6
2015-Apr-17 20:33N 54°27' E 012°12'1716.8
2015-Apr-17 19:33N 54°18' E 011°47'1716.7
2015-Apr-17 18:33N 54°09' E 011°23'12 0.8
2015-Apr-17 03:21N 54°05' E 011°04'911.6
2015-Apr-17 02:33N 54°12' E 011°15'1110.8
2015-Apr-17 01:34N 54°21' E 011°23'1110.7
2015-Apr-17 00:33N 54°32' E 011°20'1212.1
2015-Apr-16 23:33N 54°38' E 011°02'15813.1
2015-Apr-16 11:34N 57°15' E 010°42'1616.0
2015-Apr-16 10:33N 57°31' E 010°44'1515.1
2015-Apr-16 09:34N 57°46' E 010°43'1716.9
2015-Apr-16 08:32N 57°44' E 010°11'25916.1
2015-Apr-15 16:24N 54°23' E 005°16'1416.6
2015-Apr-15 15:33N 54°11' E 005°04'1616.1
2015-Apr-15 14:33N 53°56' E 004°56'1616.5
2015-Apr-15 13:34N 53°40' E 004°52'1717.4
2015-Apr-15 12:33N 53°23' E 004°41'1817.9
2015-Apr-15 11:34N 53°08' E 004°27'1717.2
2015-Apr-15 10:33N 52°52' E 004°14'1717.1
2015-Apr-15 09:33N 52°38' E 003°58'1716.6
2015-Apr-15 08:33N 52°25' E 003°41'1616.2
2015-Apr-15 07:33N 52°10' E 003°30'1615.8
2015-Apr-15 06:34N 51°55' E 003°22'1414.1
2015-Apr-15 05:33N 51°42' E 003°17'1514.7
2015-Apr-15 04:33N 51°29' E 003°30'1111.4
2015-Apr-15 03:33N 51°22' E 003°44'4 4.3
2015-Apr-15 02:33N 51°19' E 003°49'6 5.8
2015-Apr-15 01:34N 51°14' E 003°48'7 6.7
2015-Apr-15 00:31N 51°07' E 003°45'0 0.0
2015-Apr-14 23:31N 51°07' E 003°45'0 0.0
2015-Apr-14 22:29N 51°07' E 003°45'0 0.0
2015-Apr-14 21:28N 51°07' E 003°45'0 0.0
2015-Apr-14 20:28N 51°07' E 003°45'0 0.0
2015-Apr-14 19:33N 51°07' E 003°45'0 0.0
2015-Apr-14 18:33N 51°07' E 003°45'0 0.0
2015-Apr-14 17:33N 51°07' E 003°45'0 0.0
2015-Apr-14 16:33N 51°07' E 003°45'0 0.0
2015-Apr-14 15:33N 51°07' E 003°45'0 0.0
2015-Apr-14 14:30N 51°07' E 003°45'0 0.0
2015-Apr-14 13:30N 51°07' E 003°45'0 0.0
2015-Apr-14 12:33N 51°07' E 003°45'0 0.0
2015-Apr-14 11:33N 51°07' E 003°45'0 0.0
2015-Apr-14 10:28N 51°07' E 003°45'0 0.0
2015-Apr-14 09:33N 51°07' E 003°45'0 0.0
2015-Apr-14 08:28N 51°07' E 003°45'0 0.0
2015-Apr-14 07:33N 51°07' E 003°45'0 0.0
2015-Apr-14 06:33N 51°07' E 003°45'0 0.0
2015-Apr-14 05:33N 51°07' E 003°45'0 0.0
2015-Apr-14 04:28N 51°07' E 003°45'0 0.0
2015-Apr-14 03:29N 51°07' E 003°45'0 0.0
2015-Apr-14 02:31N 51°07' E 003°45'0 0.0
2015-Apr-14 01:28N 51°07' E 003°45'0 0.0
2015-Apr-14 00:33N 51°07' E 003°45'4 4.5
2015-Apr-13 23:33N 51°11' E 003°48'7 6.7
2015-Apr-13 22:34N 51°18' E 003°50'3 2.8
2015-Apr-13 21:34N 51°20' E 003°49'9 9.4
2015-Apr-13 20:33N 51°26' E 003°37'1211.7
2015-Apr-13 19:33N 51°35' E 003°24'1414.0
2015-Apr-13 18:33N 51°46' E 003°11'10 8.8
2015-Apr-13 17:26N 51°54' E 003°02'8 9.1
2015-Apr-13 16:30N 52°01' E 002°54'10 9.3
2015-Apr-13 15:28N 52°09' E 002°46'1415.5
2015-Apr-13 14:33N 52°22' E 002°34'1616.1
2015-Apr-13 13:33N 52°35' E 002°21'1616.0
2015-Apr-13 12:33N 52°49' E 002°07'1515.5
2015-Apr-13 11:33N 52°58' E 001°47'1515.2
2015-Apr-13 10:34N 53°08' E 001°27'4515.1
2015-Apr-13 07:34N 53°44' E 000°42'1515.5
2015-Apr-13 06:34N 53°56' E 000°25'1515.4
2015-Apr-13 05:33N 54°08' E 000°08'1515.2
2015-Apr-13 04:33N 54°20' W 000°09'1515.2
2015-Apr-13 03:33N 54°31' W 000°27'1615.5
2015-Apr-13 02:32N 54°38' W 000°51'11 0.8
2015-Apr-12 13:31N 54°36' W 001°09'0 0.0
2015-Apr-12 12:26N 54°36' W 001°09'0 0.1
2015-Apr-12 11:33N 54°36' W 001°09'10 9.7
2015-Apr-12 10:32N 54°43' W 000°58'2216.3
2015-Apr-12 09:13N 54°53' W 000°24'1015.1
2015-Apr-12 08:33N 54°57' W 000°08'36814.1
2015-Apr-11 06:23N 57°38' E 009°47'1415.0
2015-Apr-11 05:26N 57°44' E 010°12'1314.7
2015-Apr-11 04:33N 57°48' E 010°35'1413.9
2015-Apr-11 03:33N 57°43' E 010°59'1515.2
2015-Apr-11 02:33N 57°32' E 011°19'1515.1
2015-Apr-11 01:33N 57°19' E 011°32'1515.1
2015-Apr-11 00:34N 57°04' E 011°42'1515.0
2015-Apr-10 23:33N 56°50' E 011°51'1514.9
2015-Apr-10 22:33N 56°36' E 012°00'1515.2
2015-Apr-10 21:33N 56°23' E 012°13'1615.6
2015-Apr-10 20:34N 56°10' E 012°30'1515.5
2015-Apr-10 19:34N 55°57' E 012°43'1514.9
2015-Apr-10 18:34N 55°43' E 012°54'1211.7
2015-Apr-10 17:33N 55°32' E 012°46'1414.0
2015-Apr-10 16:33N 55°18' E 012°41'1514.7
2015-Apr-10 15:33N 55°16' E 013°06'1514.8
2015-Apr-10 14:34N 55°15' E 013°32'1515.1
2015-Apr-10 13:33N 55°14' E 013°59'1413.8
2015-Apr-10 12:33N 55°18' E 014°22'1514.5
2015-Apr-10 11:33N 55°28' E 014°40'1514.5
2015-Apr-10 10:33N 55°35' E 015°02'1515.0
2015-Apr-10 09:33N 55°43' E 015°25'1515.4
2015-Apr-10 08:33N 55°50' E 015°49'  
Track history (hours):
 
Tides and Currents Weather Stations Pressure Air Temp Water Temp Dewpoint Dewpoint Depression Visibility Wind Speed Wind Dir Waves Ship Positions

Vohburg

Last reported at 2015-Apr-20 00:32 UTC. Time now 2015-Apr-20 00:50 UTC.
Position N 59°35' E 023°36'.

Length 140 m; draft 6.8 m.

Type: Ship (hazmat cat A). MMSI: 305773000.

Date/timePositionNaut miles runAvg speedWind from/ knotsBaromVisibWave heightAir tempDewpointWater temp
2015-Apr-20 00:32N 59°35' E 023°36'387 8.4
2015-Apr-18 02:33N 55°20' E 014°35'1716.7
2015-Apr-18 01:33N 55°08' E 014°16'1616.3
2015-Apr-18 00:33N 54°58' E 013°53'1717.2
2015-Apr-17 23:33N 54°52' E 013°25'1717.0
2015-Apr-17 22:33N 54°46' E 012°57'1716.8
2015-Apr-17 21:33N 54°39' E 012°31'1716.6
2015-Apr-17 20:33N 54°27' E 012°12'1716.8
2015-Apr-17 19:33N 54°18' E 011°47'1716.7
2015-Apr-17 18:33N 54°09' E 011°23'12 0.8
2015-Apr-17 03:21N 54°05' E 011°04'911.6
2015-Apr-17 02:33N 54°12' E 011°15'1110.8
2015-Apr-17 01:34N 54°21' E 011°23'1110.7
2015-Apr-17 00:33N 54°32' E 011°20'1212.1
2015-Apr-16 23:33N 54°38' E 011°02'15813.1
2015-Apr-16 11:34N 57°15' E 010°42'1616.0
2015-Apr-16 10:33N 57°31' E 010°44'1515.1
2015-Apr-16 09:34N 57°46' E 010°43'1716.9
2015-Apr-16 08:32N 57°44' E 010°11'25916.1
2015-Apr-15 16:24N 54°23' E 005°16'1416.6
2015-Apr-15 15:33N 54°11' E 005°04'1616.1
2015-Apr-15 14:33N 53°56' E 004°56'1616.5
2015-Apr-15 13:34N 53°40' E 004°52'1717.4
2015-Apr-15 12:33N 53°23' E 004°41'1817.9
2015-Apr-15 11:34N 53°08' E 004°27'1717.2
2015-Apr-15 10:33N 52°52' E 004°14'1717.1
2015-Apr-15 09:33N 52°38' E 003°58'1716.6
2015-Apr-15 08:33N 52°25' E 003°41'1616.2
2015-Apr-15 07:33N 52°10' E 003°30'1615.8
2015-Apr-15 06:34N 51°55' E 003°22'1414.1
2015-Apr-15 05:33N 51°42' E 003°17'1514.7
2015-Apr-15 04:33N 51°29' E 003°30'1111.4
2015-Apr-15 03:33N 51°22' E 003°44'4 4.3
2015-Apr-15 02:33N 51°19' E 003°49'6 5.8
2015-Apr-15 01:34N 51°14' E 003°48'7 6.7
2015-Apr-15 00:31N 51°07' E 003°45'0 0.0
2015-Apr-14 23:31N 51°07' E 003°45'0 0.0
2015-Apr-14 22:29N 51°07' E 003°45'0 0.0
2015-Apr-14 21:28N 51°07' E 003°45'0 0.0
2015-Apr-14 20:28N 51°07' E 003°45'0 0.0
2015-Apr-14 19:33N 51°07' E 003°45'0 0.0
2015-Apr-14 18:33N 51°07' E 003°45'0 0.0
2015-Apr-14 17:33N 51°07' E 003°45'0 0.0
2015-Apr-14 16:33N 51°07' E 003°45'0 0.0
2015-Apr-14 15:33N 51°07' E 003°45'0 0.0
2015-Apr-14 14:30N 51°07' E 003°45'0 0.0
2015-Apr-14 13:30N 51°07' E 003°45'0 0.0
2015-Apr-14 12:33N 51°07' E 003°45'0 0.0
2015-Apr-14 11:33N 51°07' E 003°45'0 0.0
2015-Apr-14 10:28N 51°07' E 003°45'0 0.0
2015-Apr-14 09:33N 51°07' E 003°45'0 0.0
2015-Apr-14 08:28N 51°07' E 003°45'0 0.0
2015-Apr-14 07:33N 51°07' E 003°45'0 0.0
2015-Apr-14 06:33N 51°07' E 003°45'0 0.0
2015-Apr-14 05:33N 51°07' E 003°45'0 0.0
2015-Apr-14 04:28N 51°07' E 003°45'0 0.0
2015-Apr-14 03:29N 51°07' E 003°45'0 0.0
2015-Apr-14 02:31N 51°07' E 003°45'0 0.0
2015-Apr-14 01:28N 51°07' E 003°45'0 0.0
2015-Apr-14 00:33N 51°07' E 003°45'4 4.5
2015-Apr-13 23:33N 51°11' E 003°48'7 6.7
2015-Apr-13 22:34N 51°18' E 003°50'3 2.8
2015-Apr-13 21:34N 51°20' E 003°49'9 9.4
2015-Apr-13 20:33N 51°26' E 003°37'1211.7
2015-Apr-13 19:33N 51°35' E 003°24'1414.0
2015-Apr-13 18:33N 51°46' E 003°11'10 8.8
2015-Apr-13 17:26N 51°54' E 003°02'8 9.1
2015-Apr-13 16:30N 52°01' E 002°54'10 9.3
2015-Apr-13 15:28N 52°09' E 002°46'1415.5
2015-Apr-13 14:33N 52°22' E 002°34'1616.1
2015-Apr-13 13:33N 52°35' E 002°21'1616.0
2015-Apr-13 12:33N 52°49' E 002°07'1515.5
2015-Apr-13 11:33N 52°58' E 001°47'1515.2
2015-Apr-13 10:34N 53°08' E 001°27'4515.1
2015-Apr-13 07:34N 53°44' E 000°42'1515.5
2015-Apr-13 06:34N 53°56' E 000°25'1515.4
2015-Apr-13 05:33N 54°08' E 000°08'1515.2
2015-Apr-13 04:33N 54°20' W 000°09'1515.2
2015-Apr-13 03:33N 54°31' W 000°27'1615.5
2015-Apr-13 02:32N 54°38' W 000°51'11 0.8
2015-Apr-12 13:31N 54°36' W 001°09'0 0.0
2015-Apr-12 12:26N 54°36' W 001°09'0 0.1
2015-Apr-12 11:33N 54°36' W 001°09'10 9.7
2015-Apr-12 10:32N 54°43' W 000°58'2216.3
2015-Apr-12 09:13N 54°53' W 000°24'1015.1
2015-Apr-12 08:33N 54°57' W 000°08'36814.1
2015-Apr-11 06:23N 57°38' E 009°47'1415.0
2015-Apr-11 05:26N 57°44' E 010°12'1314.7
2015-Apr-11 04:33N 57°48' E 010°35'1413.9
2015-Apr-11 03:33N 57°43' E 010°59'1515.2
2015-Apr-11 02:33N 57°32' E 011°19'1515.1
2015-Apr-11 01:33N 57°19' E 011°32'1515.1
2015-Apr-11 00:34N 57°04' E 011°42'1515.0
2015-Apr-10 23:33N 56°50' E 011°51'1514.9
2015-Apr-10 22:33N 56°36' E 012°00'1515.2
2015-Apr-10 21:33N 56°23' E 012°13'1615.6
2015-Apr-10 20:34N 56°10' E 012°30'1515.5
2015-Apr-10 19:34N 55°57' E 012°43'1514.9
2015-Apr-10 18:34N 55°43' E 012°54'1211.7
2015-Apr-10 17:33N 55°32' E 012°46'1414.0
2015-Apr-10 16:33N 55°18' E 012°41'1514.7
2015-Apr-10 15:33N 55°16' E 013°06'1514.8
2015-Apr-10 14:34N 55°15' E 013°32'1515.1
2015-Apr-10 13:33N 55°14' E 013°59'1413.8
2015-Apr-10 12:33N 55°18' E 014°22'1514.5
2015-Apr-10 11:33N 55°28' E 014°40'1514.5
2015-Apr-10 10:33N 55°35' E 015°02'1515.0
2015-Apr-10 09:33N 55°43' E 015°25'1515.4
2015-Apr-10 08:33N 55°50' E 015°49'  

Dump ship's entire track history